Overview Statistics Trail Chart Weather Telemetry Raw packets
 

This is the latest recevied weather packets stored in our database for station/object KQ7A. If no packets are shown the sender has not sent any weather packets the latest 10 day(s).

<< 30 31 32 33 34 35 36 >>
Time Temp. Humidity Pressure Rain* Wind** Luminosity Snow
1788475173 18.89° C 42% 1014.5 hPa 0 mm - 143 W/m² -
1788474872 18.89° C 41% 1014.4 hPa 0 mm - 184 W/m² -
1788474571 18.89° C 40% 1014.5 hPa 0 mm - 167 W/m² -
1788474267 18.89° C 40% 1014.3 hPa 0 mm - 199 W/m² -
1788473961 18.89° C 40% 1014.3 hPa 0 mm - 234 W/m² -
1788473660 18.89° C 40% 1014.6 hPa 0 mm - 199 W/m² -
1788473358 18.89° C 40% 1014.1 hPa 0 mm - 179 W/m² -
1788473052 18.89° C 40% 1014.5 hPa 0 mm - 216 W/m² -
1788472749 18.89° C 39% 1014.5 hPa 0 mm - 203 W/m² -
1788472447 19.44° C 38% 1014.3 hPa 0 mm - 175 W/m² -
1788472145 19.44° C 39% 1014.5 hPa 0 mm - 493 W/m² -
1788471841 20° C 39% 1014.4 hPa 0 mm - 169 W/m² -
1788471541 20° C 37% 1014.5 hPa 0 mm - 361 W/m² -
1788471236 20° C 38% 1014.6 hPa 0 mm - 285 W/m² -
1788470932 20.56° C 36% 1014.4 hPa 0 mm - 753 W/m² -
1788470628 20.56° C 37% 1014.6 hPa 0 mm - 609 W/m² -
1788470327 20° C 38% 1014.7 hPa 0 mm - 812 W/m² -
1788470023 20.56° C 36% 1014.6 hPa 0 mm - 450 W/m² -
1788469719 21.11° C 35% 1014.5 hPa 0 mm - 373 W/m² -
1788469413 20.56° C 37% 1014.6 hPa 0 mm - 403 W/m² -
1788469113 21.11° C 36% 1014 hPa 0 mm - 245 W/m² -
1788468813 21.11° C 35% 1014.4 hPa 0 mm - 853 W/m² -
1788468508 21.11° C 34% 1014.5 hPa 0 mm - 806 W/m² -
1788468204 21.67° C 34% 1014.1 hPa 0 mm - 821 W/m² -
1788467900 21.67° C 34% 1013.9 hPa 0 mm - 761 W/m² -

* Rain latest hour (hover to see other rain measurements)
** Current wind speed in m/s (hover to see current wind gust speed)